Eastpoint, FL

1:29 AM EDT on August 28, 2015 (GMT -0400)
APRSWXNET | | Change Station
CLOSE
Current Station
Personal Weather Station
Location: Apalachicola, FL
Elevation: 45 ft
Nearby Weather Stations

Elev 45 ft 29.63 °N, 84.94 °W | Updated 58 days ago

Partly Cloudy
Partly Cloudy
74 °F
Feels Like 74 °F
N
2
Wind Variable Wind from ENE
Gusts mph

Today
High -- | Low -- °F
--% Chance of Precip.
Yesterday
High -- | Low -- °F
Precip. -- in
7:14 AM 8:06 PM
Waxing Gibbous, 96% visible
Pressure 29.97 in
Visibility 10.0 miles
Clouds Mostly Cloudy 8000 ft
Dew Point 67 °F
Humidity 78%
Rainfall in
Snow Depth Not available.
UV 0 out of 12
Pollen 6.00 out of 12
Air Quality Not available.
Flu Activity Not available.
METAR KAAF 280453Z AUTO 00000KT 10SM BKN080 24/19 A2997 RMK AO2 SLP148 T02390194 403330178
Pressure 29.97 in
Visibility 10.0 miles
Clouds Mostly Cloudy 8000 ft
Dew Point 67 °F
Humidity 78%
Rainfall in
Snow Depth Not available.
UV 0 out of 12
Pollen 6.00 out of 12
Air Quality Not available.
Flu Activity Not available.
METAR KAAF 280453Z AUTO 00000KT 10SM BKN080 24/19 A2997 RMK AO2 SLP148 T02390194 403330178

10-Day Weather Forecast

×

Almanac

Astronomy

Aug. 28, 2015 Rise Set
Actual Time
Civil Twilight
Nautical Twilight
Astronomical Twilight
Moon
Length of Visible Light
Length of Day
Tomorrow will be .
, % of the Moon is Illuminated

Today's Extremes

State Highs State Lows

Community

WunderPhotos

Upload Photos

1,850,340 photos uploaded!

WunderBlogs® & News

Nearby

Air Quality

  Air Quality AQ Index Pollutant
Not available.

Snow Depth

Station Depth Elevation

Earthquake Activity

City Distance Mag. Time & Date
Minimum magnitude displayed is 2.5.

Coastal Water Temperatures

Place Temperature

Stations

Nearby Weather Stations

Station Location Temp. Windchill Dew Point Humidity Wind Precip. Elev Updated Type